Time;durP1;ratioP1;P1;durP2;ratioP2;P2;SDS_P1;SDS_P2;PMS_P1;PMS_P2;Temp;Humidity;BMP_temperature;BMP_pressure;BME280_temperature;BME280_humidity;BME280_pressure;Samples;Min_cycle;Max_cycle;Signal;HPM_P1;HPM_P2
2022/04/16 00:01:44;;;;;;;30.95;21.30;;;;;;;11.20;69.93;100173.06;5026762;28;20469;-78
2022/04/16 00:04:10;;;;;;;31.30;21.38;;;;;;;11.16;70.23;100171.88;5025499;28;20061;-79
2022/04/16 00:06:36;;;;;;;29.00;20.83;;;;;;;11.07;70.06;100160.63;5005869;28;20038;-78
2022/04/16 00:09:02;;;;;;;27.10;19.80;;;;;;;11.17;69.98;100170.81;5019893;28;20049;-78
2022/04/16 00:11:27;;;;;;;26.75;19.45;;;;;;;11.12;70.12;100168.81;5025592;28;20450;-78
2022/04/16 00:13:53;;;;;;;30.33;20.90;;;;;;;11.12;69.90;100173.34;5003344;28;20037;-78
2022/04/16 00:16:18;;;;;;;27.52;19.15;;;;;;;11.10;70.60;100167.41;5006041;28;20040;-78
2022/04/16 00:18:44;;;;;;;24.98;19.15;;;;;;;11.09;70.11;100187.16;5005694;28;20037;-78
2022/04/16 00:21:11;;;;;;;23.30;17.60;;;;;;;11.16;70.21;100177.22;5020666;28;20108;-78
2022/04/16 00:23:37;;;;;;;21.05;15.95;;;;;;;11.08;70.27;100172.97;5008622;28;20477;-79
2022/04/16 00:26:03;;;;;;;24.65;17.95;;;;;;;11.05;70.62;100172.59;5019433;28;20030;-78
2022/04/16 00:28:29;;;;;;;24.65;17.17;;;;;;;11.08;70.14;100170.28;5020212;28;20042;-78
2022/04/16 00:30:56;;;;;;;20.65;15.65;;;;;;;11.05;70.19;100167.25;5027235;28;20461;-78
2022/04/16 00:33:21;;;;;;;23.15;16.13;;;;;;;11.00;70.57;100173.25;5017888;28;20021;-78
2022/04/16 00:35:47;;;;;;;21.13;14.90;;;;;;;11.09;70.32;100163.09;5023333;28;20029;-78
2022/04/16 00:38:12;;;;;;;22.60;15.13;;;;;;;11.04;69.67;100181.63;5026393;28;20029;-78
2022/04/16 00:40:40;;;;;;;21.35;14.93;;;;;;;10.96;69.72;100176.56;5019649;28;20037;-78
2022/04/16 00:43:06;;;;;;;21.88;14.43;;;;;;;10.98;69.85;100179.84;5019298;28;20512;-78
2022/04/16 00:45:33;;;;;;;18.23;14.50;;;;;;;11.07;69.78;100178.53;5029529;28;20025;-78
2022/04/16 00:47:59;;;;;;;17.60;13.52;;;;;;;11.00;69.51;100186.59;5021925;28;20115;-79
2022/04/16 00:50:25;;;;;;;18.65;13.93;;;;;;;10.96;69.71;100179.25;5026281;28;20115;-78
2022/04/16 00:52:51;;;;;;;19.98;13.57;;;;;;;11.01;69.65;100182.88;5025022;28;20105;-79
2022/04/16 00:55:17;;;;;;;15.30;12.95;;;;;;;10.87;69.80;100185.88;5033561;28;20099;-78
2022/04/16 00:57:43;;;;;;;16.23;12.63;;;;;;;10.92;69.42;100183.41;5022101;28;20037;-78
2022/04/16 01:00:10;;;;;;;19.30;13.25;;;;;;;10.86;69.89;100177.06;5029086;28;20047;-78
2022/04/16 01:02:37;;;;;;;19.33;12.20;;;;;;;10.84;69.59;100189.81;5020483;28;20120;-78
2022/04/16 01:05:07;;;;;;;17.20;11.90;;;;;;;10.83;69.35;100182.84;5020631;28;20025;-78
2022/04/16 01:07:33;;;;;;;16.50;12.15;;;;;;;10.88;69.37;100185.66;5008993;28;20025;-78
2022/04/16 01:09:58;;;;;;;18.00;12.32;;;;;;;10.94;69.45;100187.47;5026901;28;20037;-78
2022/04/16 01:12:23;;;;;;;19.80;11.13;;;;;;;10.87;69.74;100189.38;5020947;28;20497;-78
2022/04/16 01:14:50;;;;;;;15.85;12.25;;;;;;;10.79;69.59;100188.84;5025702;28;20457;-78
2022/04/16 01:17:17;;;;;;;17.92;11.70;;;;;;;10.88;69.32;100190.19;5019307;28;20026;-78
2022/04/16 01:19:43;;;;;;;17.00;11.70;;;;;;;10.91;69.14;100203.13;5024164;28;20044;-78
2022/04/16 01:22:11;;;;;;;14.90;11.45;;;;;;;10.91;69.24;100203.13;5020487;28;20021;-78
2022/04/16 01:24:37;;;;;;;16.67;12.68;;;;;;;10.79;69.66;100202.19;5022924;28;20033;-78
2022/04/16 01:27:04;;;;;;;18.73;11.40;;;;;;;10.80;69.55;100204.63;5027882;28;20074;-78
2022/04/16 01:29:30;;;;;;;14.90;12.25;;;;;;;10.79;69.64;100213.66;5026142;28;20037;-78
2022/04/16 01:31:55;;;;;;;16.95;12.10;;;;;;;10.76;69.43;100206.09;5019985;28;20087;-78
2022/04/16 01:34:20;;;;;;;16.50;11.55;;;;;;;10.76;69.31;100210.63;5007205;28;20120;-78
2022/04/16 01:36:46;;;;;;;14.77;10.45;;;;;;;10.82;69.42;100215.09;5027292;28;20026;-78
2022/04/16 01:39:12;;;;;;;16.48;11.30;;;;;;;10.80;69.62;100209.16;5025808;28;20117;-78
2022/04/16 01:41:38;;;;;;;20.48;12.30;;;;;;;10.73;69.81;100216.38;5007160;28;20104;-78
2022/04/16 01:44:03;;;;;;;15.75;11.85;;;;;;;10.77;69.57;100212.28;5021492;28;20029;-78
2022/04/16 01:46:29;;;;;;;17.42;12.05;;;;;;;10.75;69.57;100227.66;5027351;28;20033;-78
2022/04/16 01:48:55;;;;;;;18.60;12.60;;;;;;;10.62;69.82;100217.06;5024942;28;20565;-78
2022/04/16 01:51:24;;;;;;;14.93;11.48;;;;;;;10.73;69.56;100216.38;5020951;28;20033;-79
2022/04/16 01:53:49;;;;;;;17.45;11.57;;;;;;;10.70;69.18;100216.84;5027813;28;20033;-79
2022/04/16 01:56:15;;;;;;;20.35;12.73;;;;;;;10.61;69.34;100218.94;5017656;28;20033;-78
2022/04/16 01:58:41;;;;;;;19.42;13.68;;;;;;;10.59;69.10;100215.69;5024442;28;20048;-79
2022/04/16 02:01:07;;;;;;;17.55;12.57;;;;;;;10.65;68.93;100214.81;5013148;28;20041;-78
2022/04/16 02:03:33;;;;;;;17.42;12.15;;;;;;;10.73;69.18;100224.41;5023946;28;20160;-78
2022/04/16 02:05:59;;;;;;;16.92;11.57;;;;;;;10.63;69.60;100216.88;5021790;28;20112;-78
2022/04/16 02:08:24;;;;;;;18.45;12.15;;;;;;;10.64;69.57;100207.03;5023757;28;20037;-78
2022/04/16 02:10:49;;;;;;;19.92;12.18;;;;;;;10.70;69.45;100216.84;5006946;28;20053;-78
2022/04/16 02:13:15;;;;;;;16.88;11.80;;;;;;;10.60;69.48;100211.13;5021900;28;20037;-78
2022/04/16 02:15:40;;;;;;;18.95;12.52;;;;;;;10.56;69.56;100216.09;5026455;28;20063;-78
2022/04/16 02:18:06;;;;;;;21.45;13.10;;;;;;;10.60;69.73;100219.13;5021739;28;20025;-78
2022/04/16 02:20:31;;;;;;;19.45;11.93;;;;;;;10.62;69.13;100219.75;5018504;28;20053;-78
2022/04/16 02:22:57;;;;;;;20.15;12.73;;;;;;;10.57;69.61;100222.25;5023073;28;20103;-78
2022/04/16 02:25:25;;;;;;;16.38;10.82;;;;;;;10.60;69.40;100225.31;5007037;28;20638;-78
2022/04/16 02:27:51;;;;;;;16.70;11.85;;;;;;;10.60;69.45;100227.97;4999225;28;20469;-78
2022/04/16 02:30:18;;;;;;;20.02;12.15;;;;;;;10.52;69.53;100231.72;5024653;28;20049;-78
2022/04/16 02:32:46;;;;;;;19.85;11.50;;;;;;;10.51;69.24;100237.25;5019584;28;20033;-78
2022/04/16 02:35:14;;;;;;;18.08;11.85;;;;;;;10.55;69.13;100236.63;5021700;28;20038;-78
2022/04/16 02:37:39;;;;;;;18.27;11.70;;;;;;;10.54;69.37;100243.00;5029320;28;20056;-78
2022/04/16 02:40:06;;;;;;;19.80;12.15;;;;;;;10.53;69.17;100238.69;5008941;28;20134;-78
2022/04/16 02:42:39;;;;;;;18.95;11.88;;;;;;;10.51;69.20;100238.09;5022284;28;20505;-79
2022/04/16 02:47:51;;;;;;;19.33;12.55;;;;;;;10.53;69.43;100253.88;5014699;28;20032;-78
2022/04/16 02:50:17;;;;;;;20.38;11.70;;;;;;;10.41;69.62;100248.41;5029733;28;20460;-79
2022/04/16 02:52:44;;;;;;;24.25;13.95;;;;;;;10.50;68.99;100249.81;5008923;28;20060;-78
2022/04/16 02:55:09;;;;;;;19.38;12.27;;;;;;;10.45;69.27;100251.47;5023851;28;20130;-79
2022/04/16 02:57:35;;;;;;;21.35;12.77;;;;;;;10.37;69.67;100243.72;5022132;28;20564;-79
2022/04/16 03:00:00;;;;;;;18.50;12.73;;;;;;;10.45;69.39;100246.13;4995953;28;20025;-78
2022/04/16 03:02:25;;;;;;;21.95;13.23;;;;;;;10.38;69.59;100245.34;5019423;28;20033;-78
2022/04/16 03:04:51;;;;;;;22.30;13.43;;;;;;;10.32;69.15;100249.69;5001249;28;20036;-78
2022/04/16 03:07:17;;;;;;;21.83;13.20;;;;;;;10.36;69.94;100256.25;4994736;28;20084;-78
2022/04/16 03:09:42;;;;;;;24.95;12.95;;;;;;;10.37;69.75;100255.22;5023489;28;20084;-78
2022/04/16 03:12:07;;;;;;;17.30;10.60;;;;;;;10.37;69.60;100265.06;5020367;28;20033;-78
2022/04/16 03:17:32;;;;;;;21.17;12.52;;;;;;;10.29;69.11;100265.28;5025089;28;20052;-78
2022/04/16 03:20:04;;;;;;;20.85;12.50;;;;;;;10.32;69.06;100267.53;5022930;28;20380;-78
2022/04/16 03:22:32;;;;;;;23.10;12.27;;;;;;;10.32;69.43;100273.72;4994138;28;20030;-78
2022/04/16 03:25:07;;;;;;;20.60;12.45;;;;;;;10.33;69.57;100269.19;5029424;28;20020;-78
2022/04/16 03:27:32;;;;;;;24.70;12.18;;;;;;;10.29;69.25;100267.97;5022489;28;20072;-78
2022/04/16 03:29:58;;;;;;;19.50;11.82;;;;;;;10.30;69.70;100269.59;5028557;28;20048;-78
2022/04/16 03:32:23;;;;;;;21.92;11.93;;;;;;;10.33;69.85;100278.00;5022573;28;20026;-78
2022/04/16 03:34:49;;;;;;;17.00;11.30;;;;;;;10.25;69.23;100272.09;5034825;28;20034;-78
2022/04/16 03:37:14;;;;;;;19.35;12.23;;;;;;;10.24;69.33;100276.59;5008163;28;20507;-78
2022/04/16 03:39:39;;;;;;;17.40;11.20;;;;;;;10.28;69.61;100272.50;5024217;28;20032;-78
2022/04/16 03:42:05;;;;;;;19.20;12.93;;;;;;;10.27;69.67;100275.34;5004903;28;20033;-78
2022/04/16 03:44:30;;;;;;;21.13;11.73;;;;;;;10.23;69.02;100285.66;4993171;28;20516;-78
2022/04/16 03:46:55;;;;;;;23.38;12.23;;;;;;;10.24;68.98;100279.25;5022053;28;20469;-78
2022/04/16 03:49:21;;;;;;;17.42;11.05;;;;;;;10.21;68.84;100271.69;5017702;28;20037;-78
2022/04/16 03:51:46;;;;;;;17.33;10.68;;;;;;;10.20;68.41;100278.06;5020801;28;20737;-78
2022/04/16 04:02:24;;;;;;;18.63;10.40;;;;;;;10.13;69.43;100292.47;5022752;28;20063;-78
2022/04/16 04:04:50;;;;;;;15.30;9.88;;;;;;;10.18;69.03;100297.97;5004813;28;20034;-78
2022/04/16 04:07:16;;;;;;;14.70;10.32;;;;;;;10.10;69.33;100296.34;5024511;28;20392;-78
2022/04/16 04:09:41;;;;;;;15.32;9.25;;;;;;;10.18;68.54;100308.63;4995556;28;20029;-78
2022/04/16 04:12:14;;;;;;;16.35;10.27;;;;;;;10.13;69.04;100303.97;5030658;28;20144;-78
2022/04/16 04:14:40;;;;;;;17.77;9.60;;;;;;;10.12;68.84;100304.16;5023141;28;20103;-78
2022/04/16 04:17:07;;;;;;;17.02;10.70;;;;;;;10.07;68.75;100296.75;5023907;28;20115;-78
2022/04/16 04:19:45;;;;;;;16.02;9.35;;;;;;;10.15;68.45;100301.91;5019460;28;20037;-78
2022/04/16 04:22:14;;;;;;;17.30;9.52;;;;;;;10.10;69.01;100303.50;5026105;28;20028;-78
2022/04/16 04:24:40;;;;;;;15.85;9.05;;;;;;;10.05;68.62;100314.81;5022977;28;20036;-78
2022/04/16 04:27:07;;;;;;;16.05;8.40;;;;;;;10.09;69.21;100308.00;5004360;28;20030;-78
2022/04/16 04:29:33;;;;;;;16.63;9.45;;;;;;;10.10;68.29;100314.19;5021647;28;20041;-78
2022/04/16 04:31:59;;;;;;;16.20;8.68;;;;;;;10.10;68.81;100317.66;5028709;28;20031;-78
2022/04/16 04:34:25;;;;;;;14.52;8.43;;;;;;;10.09;68.80;100328.56;5021379;28;20030;-78
2022/04/16 04:36:51;;;;;;;13.02;8.77;;;;;;;10.09;68.36;100328.56;5029304;28;20030;-78
2022/04/16 04:39:16;;;;;;;12.18;8.20;;;;;;;10.09;68.25;100331.22;5025375;28;20083;-78
2022/04/16 04:41:43;;;;;;;12.95;8.05;;;;;;;10.05;68.04;100327.31;5028125;28;20447;-78
2022/04/16 04:44:15;;;;;;;12.48;7.47;;;;;;;10.04;67.74;100334.53;5008217;28;20030;-78
2022/04/16 04:46:41;;;;;;;13.38;7.65;;;;;;;10.03;67.60;100343.53;5020428;28;20022;-78
2022/04/16 04:49:07;;;;;;;11.80;7.60;;;;;;;9.98;68.56;100343.34;5022433;28;20037;-78
2022/04/16 04:51:37;;;;;;;11.48;7.15;;;;;;;10.01;67.71;100342.94;5023450;28;20075;-78
2022/04/16 04:54:03;;;;;;;11.30;6.80;;;;;;;9.90;67.81;100362.22;5035273;28;20025;-78
2022/04/16 04:56:29;;;;;;;12.07;7.63;;;;;;;9.94;68.21;100365.31;5027395;28;20112;-78
2022/04/16 04:58:55;;;;;;;16.98;7.03;;;;;;;9.83;67.54;100370.22;5029439;28;20108;-78
2022/04/16 05:01:20;;;;;;;14.98;7.40;;;;;;;9.85;67.43;100377.22;5029174;28;20030;-78
2022/04/16 05:03:45;;;;;;;9.88;6.82;;;;;;;9.87;67.79;100384.00;5009548;28;20522;-78
2022/04/16 05:06:11;;;;;;;10.98;7.25;;;;;;;9.83;67.81;100386.22;5017889;28;20049;-78
2022/04/16 05:08:36;;;;;;;10.07;6.85;;;;;;;10.02;66.86;100387.25;5011819;28;20030;-78
2022/04/16 05:11:02;;;;;;;10.43;7.25;;;;;;;10.17;66.64;100387.88;5015140;28;20030;-78
2022/04/16 05:13:27;;;;;;;11.75;6.13;;;;;;;10.03;67.18;100386.22;5025812;28;20038;-78
2022/04/16 05:15:52;;;;;;;9.05;5.95;;;;;;;10.14;66.11;100390.94;5028655;28;20042;-78
2022/04/16 05:18:17;;;;;;;8.55;5.85;;;;;;;10.26;65.76;100405.31;4990112;28;20119;-78
2022/04/16 05:20:46;;;;;;;8.30;5.45;;;;;;;10.24;66.23;100410.00;4991130;28;20029;-78
2022/04/16 05:23:12;;;;;;;7.47;5.40;;;;;;;10.39;65.07;100412.47;5030261;28;20082;-78
2022/04/16 05:25:37;;;;;;;6.60;4.28;;;;;;;10.50;65.26;100410.00;5000040;28;20041;-78
2022/04/16 05:28:03;;;;;;;6.32;4.70;;;;;;;10.43;64.97;100409.19;5026192;28;20032;-78
2022/04/16 05:30:38;;;;;;;7.05;4.50;;;;;;;10.48;65.15;100404.00;5019441;28;20136;-78
2022/04/16 05:33:16;;;;;;;5.30;4.78;;;;;;;10.49;64.16;100408.34;5030005;28;20076;-78
2022/04/16 05:35:41;;;;;;;7.18;4.40;;;;;;;10.61;64.19;100405.00;5023360;28;20413;-78
2022/04/16 05:38:06;;;;;;;5.50;3.95;;;;;;;10.56;63.98;100416.31;5021885;28;20030;-78
2022/04/16 05:40:32;;;;;;;5.55;3.40;;;;;;;10.48;64.06;100412.00;5024497;28;20055;-78
2022/04/16 05:42:57;;;;;;;4.10;3.05;;;;;;;10.51;63.84;100419.63;5026344;28;20034;-78
2022/04/16 05:45:22;;;;;;;4.28;3.25;;;;;;;10.46;63.85;100424.75;5011998;28;20564;-78
2022/04/16 05:47:47;;;;;;;4.82;3.33;;;;;;;10.46;63.88;100431.97;5019531;28;20164;-78
2022/04/16 05:50:14;;;;;;;4.25;3.50;;;;;;;10.39;63.44;100433.81;5005895;28;20500;-78
2022/04/16 05:52:39;;;;;;;4.20;2.90;;;;;;;10.36;64.05;100429.72;5026267;28;20029;-78
2022/04/16 05:55:05;;;;;;;3.35;2.90;;;;;;;10.28;63.37;100442.47;5022229;28;20528;-78
2022/04/16 05:57:31;;;;;;;3.38;2.95;;;;;;;10.34;62.75;100437.13;5005340;28;20046;-78
2022/04/16 05:59:56;;;;;;;3.60;2.80;;;;;;;10.33;62.77;100435.47;5025355;28;20025;-78
2022/04/16 06:02:22;;;;;;;4.50;2.85;;;;;;;10.36;62.96;100440.41;5021340;28;20132;-78
2022/04/16 06:04:47;;;;;;;3.67;2.83;;;;;;;10.38;63.00;100453.53;5015066;28;20044;-78
2022/04/16 06:07:13;;;;;;;3.63;2.58;;;;;;;10.33;62.89;100448.00;5022371;28;20666;-78
2022/04/16 06:09:38;;;;;;;4.00;2.47;;;;;;;10.27;62.95;100459.50;4990278;28;20046;-78
2022/04/16 06:12:05;;;;;;;3.67;2.67;;;;;;;10.28;62.81;100474.47;5024034;28;20450;-78
2022/04/16 06:14:31;;;;;;;3.22;2.60;;;;;;;10.11;62.53;100479.41;5026294;28;20156;-78
2022/04/16 06:16:56;;;;;;;2.33;2.13;;;;;;;10.25;62.53;100481.06;5021288;28;20083;-78
2022/04/16 06:19:23;;;;;;;5.07;2.75;;;;;;;10.12;62.14;100483.72;5014753;28;20493;-78
2022/04/16 06:21:48;;;;;;;2.92;2.72;;;;;;;10.01;61.42;100478.97;5030250;28;20036;-78
2022/04/16 06:24:14;;;;;;;3.75;2.53;;;;;;;10.04;61.70;100477.75;5027232;28;20476;-79
2022/04/16 06:26:41;;;;;;;3.08;2.28;;;;;;;10.03;61.90;100479.56;5006325;28;20033;-79
2022/04/16 06:29:06;;;;;;;2.53;2.20;;;;;;;9.97;61.32;100472.41;5025488;28;20037;-78
2022/04/16 06:31:31;;;;;;;2.58;2.20;;;;;;;9.89;61.68;100474.44;5005611;28;20036;-78
2022/04/16 06:33:56;;;;;;;3.63;1.90;;;;;;;9.88;60.71;100486.13;5020368;28;20376;-79
2022/04/16 06:36:22;;;;;;;4.32;2.20;;;;;;;9.85;60.28;100492.69;5025855;28;20056;-79
2022/04/16 06:38:47;;;;;;;2.85;1.92;;;;;;;10.11;59.64;100494.59;5022540;28;20068;-78
2022/04/16 06:41:12;;;;;;;4.72;1.80;;;;;;;9.89;60.64;100490.44;5006184;28;20386;-78
2022/04/16 06:43:38;;;;;;;2.30;2.10;;;;;;;10.11;60.21;100494.59;5019693;28;20040;-78
2022/04/16 06:46:03;;;;;;;3.88;2.10;;;;;;;9.99;60.44;100504.19;5014583;28;20060;-78
2022/04/16 06:48:28;;;;;;;2.67;1.88;;;;;;;10.00;59.86;100505.84;5013719;28;20038;-78
2022/04/16 06:50:54;;;;;;;2.35;1.80;;;;;;;10.08;59.44;100505.66;5012287;28;20041;-78
2022/04/16 06:53:19;;;;;;;1.90;1.70;;;;;;;10.05;60.17;100509.53;5013010;28;20551;-78
2022/04/16 06:55:44;;;;;;;2.30;1.65;;;;;;;10.22;59.65;100502.00;5003609;28;20513;-78
2022/04/16 06:58:10;;;;;;;2.58;1.90;;;;;;;10.07;59.71;100510.16;5015634;28;20029;-78
2022/04/16 07:00:35;;;;;;;1.70;1.60;;;;;;;10.09;59.83;100513.44;5006318;28;20448;-78
2022/04/16 07:03:00;;;;;;;2.90;1.70;;;;;;;10.12;60.06;100507.72;5005897;28;20057;-78
2022/04/16 07:05:25;;;;;;;1.90;1.70;;;;;;;10.15;59.43;100506.50;5018446;28;20037;-78
2022/04/16 07:07:51;;;;;;;3.50;1.63;;;;;;;10.08;59.67;100505.66;5016729;28;20049;-78
2022/04/16 07:10:16;;;;;;;2.10;1.67;;;;;;;10.01;60.50;100494.97;5022812;28;20108;-81
2022/04/16 07:12:42;;;;;;;3.38;1.83;;;;;;;10.15;60.10;100499.34;5002190;28;20038;-81
2022/04/16 07:15:07;;;;;;;2.90;1.70;;;;;;;10.19;59.82;100497.88;5022274;28;20025;-81
2022/04/16 07:17:33;;;;;;;1.88;1.77;;;;;;;10.10;60.03;100495.59;5006288;28;20029;-81
2022/04/16 07:19:58;;;;;;;1.77;1.65;;;;;;;10.20;58.92;100496.06;5016352;28;20037;-81
2022/04/16 07:22:23;;;;;;;4.88;1.50;;;;;;;10.13;59.29;100492.56;5017590;28;20382;-81
2022/04/16 07:24:49;;;;;;;1.85;1.70;;;;;;;10.10;60.05;100490.25;5016364;28;20041;-81
2022/04/16 07:27:15;;;;;;;2.72;1.67;;;;;;;9.93;60.00;100486.34;5035347;28;20060;-80
2022/04/16 07:29:41;;;;;;;2.15;1.65;;;;;;;9.86;60.38;100488.19;5022531;28;20069;-81
2022/04/16 07:32:06;;;;;;;2.95;1.50;;;;;;;10.00;60.36;100481.84;5005509;28;20370;-81
2022/04/16 07:34:32;;;;;;;1.88;1.52;;;;;;;10.01;59.11;100480.81;5021042;28;20037;-80
2022/04/16 07:36:57;;;;;;;2.75;1.70;;;;;;;10.01;59.33;100478.97;5024573;28;20072;-81
2022/04/16 07:39:22;;;;;;;2.38;1.48;;;;;;;9.98;59.81;100484.69;5015461;28;20037;-81
2022/04/16 07:41:51;;;;;;;1.65;1.52;;;;;;;9.97;59.94;100479.56;5009210;28;20041;-81
2022/04/16 07:44:17;;;;;;;1.88;1.75;;;;;;;9.83;60.66;100478.75;5018633;28;20026;-81
2022/04/16 07:46:42;;;;;;;3.88;1.60;;;;;;;10.02;59.55;100475.28;5016827;28;20034;-81
2022/04/16 07:49:07;;;;;;;2.97;1.52;;;;;;;10.17;59.49;100491.94;5030750;28;20033;-81
2022/04/16 07:51:33;;;;;;;1.92;1.50;;;;;;;10.12;59.26;100491.72;5016775;28;20061;-81
2022/04/16 07:53:58;;;;;;;1.67;1.58;;;;;;;10.17;59.59;100491.94;5009060;28;20041;-81
2022/04/16 07:56:24;;;;;;;2.67;1.40;;;;;;;10.33;58.39;100485.38;5019690;28;20021;-81
2022/04/16 07:58:50;;;;;;;2.47;1.30;;;;;;;10.32;58.08;100487.22;5016392;28;20084;-81
2022/04/16 08:01:17;;;;;;;3.50;1.40;;;;;;;10.28;58.19;100494.00;5009250;28;20016;-81
2022/04/16 08:03:42;;;;;;;1.42;1.33;;;;;;;10.34;58.63;100498.50;5018228;28;20409;-81
2022/04/16 08:06:07;;;;;;;3.75;1.58;;;;;;;10.48;57.41;100494.78;5026358;28;20026;-80
2022/04/16 08:08:32;;;;;;;1.33;1.20;;;;;;;10.42;58.56;100492.94;5037684;28;20041;-81
2022/04/16 08:10:58;;;;;;;3.45;1.17;;;;;;;10.42;58.87;100492.09;5014548;28;20044;-81
2022/04/16 08:13:24;;;;;;;2.50;1.23;;;;;;;10.60;58.48;100491.47;5022768;28;20026;-80
2022/04/16 08:15:50;;;;;;;1.98;1.38;;;;;;;10.66;57.61;100498.66;5027964;28;20052;-81
2022/04/16 08:18:16;;;;;;;1.67;1.10;;;;;;;10.68;57.26;100491.28;5022251;28;20021;-81
2022/04/16 08:20:42;;;;;;;7.20;1.38;;;;;;;10.88;57.12;100492.00;5021558;28;20087;-80
2022/04/16 08:23:08;;;;;;;9.57;2.03;;;;;;;10.82;51.04;100495.53;5020199;28;20044;-80
2022/04/16 08:28:00;;;;;;;6.63;2.38;;;;;;;10.48;47.86;100504.66;5022518;28;20026;-80
2022/04/16 08:30:26;;;;;;;3.30;1.73;;;;;;;10.45;49.52;100508.56;4995678;28;20036;-81
2022/04/16 08:32:52;;;;;;;1.23;1.08;;;;;;;10.46;49.21;100514.72;5020741;28;20034;-80
2022/04/16 08:35:19;;;;;;;38.88;3.28;;;;;;;10.49;49.25;100507.09;5021495;28;20456;-80
2022/04/16 08:37:45;;;;;;;24.75;2.78;;;;;;;10.53;49.09;100519.00;5026428;28;20048;-80
2022/04/16 08:40:14;;;;;;;21.70;2.47;;;;;;;10.60;50.26;100521.66;5036831;28;20038;-80
2022/04/16 08:42:41;;;;;;;812.67;95.88;;;;;;;10.51;48.88;100518.41;5022175;28;20065;-80
2022/04/16 08:45:09;;;;;;;859.47;88.88;;;;;;;10.48;48.65;100521.47;5026974;28;20038;-80
2022/04/16 08:47:35;;;;;;;196.70;16.95;;;;;;;10.47;49.26;100514.50;5023662;28;20088;-80
2022/04/16 08:50:02;;;;;;;93.38;11.60;;;;;;;10.51;50.31;100520.25;5029027;28;20045;-80
2022/04/16 08:52:32;;;;;;;21.60;3.03;;;;;;;10.48;48.83;100512.66;5028636;28;20025;-80
2022/04/16 08:54:58;;;;;;;6.22;1.05;;;;;;;10.45;49.09;100523.75;5028504;28;20029;-80
2022/04/16 08:57:24;;;;;;;1.63;1.08;;;;;;;10.61;49.98;100525.16;5018761;28;20639;-80
2022/04/16 08:59:53;;;;;;;4.32;1.42;;;;;;;10.89;49.66;100520.38;5026108;28;20741;-80
2022/04/16 09:02:19;;;;;;;13.27;2.47;;;;;;;10.89;49.60;100515.88;5026044;28;20397;-79
2022/04/16 09:04:46;;;;;;;44.97;5.78;;;;;;;10.88;49.79;100518.72;5031245;28;20041;-80
2022/04/16 09:07:11;;;;;;;19.63;3.88;;;;;;;11.07;49.49;100515.22;5025945;28;20071;-80
2022/04/16 09:09:37;;;;;;;146.02;11.68;;;;;;;10.97;48.94;100522.81;5034909;28;20104;-81
2022/04/16 09:12:02;;;;;;;40.92;4.00;;;;;;;10.93;49.05;100524.28;5036204;28;20230;-81
2022/04/16 09:14:43;;;;;;;27.95;3.13;;;;;;;10.85;48.45;100527.19;5028141;28;20393;-81
2022/04/16 09:17:08;;;;;;;12.27;2.50;;;;;;;10.89;49.78;100533.75;5044896;28;20029;-81
2022/04/16 09:19:34;;;;;;;7.70;2.65;;;;;;;10.85;49.71;100533.34;5023767;28;20033;-81
2022/04/16 09:21:59;;;;;;;1.73;1.38;;;;;;;10.95;50.16;100535.56;5011869;28;20037;-80
2022/04/16 09:24:25;;;;;;;5.30;1.48;;;;;;;11.28;50.06;100525.59;5032955;28;20036;-80
2022/04/16 09:26:51;;;;;;;1.67;1.30;;;;;;;11.24;49.12;100533.22;5017163;28;20033;-80
2022/04/16 09:29:18;;;;;;;8.20;1.83;;;;;;;11.18;49.45;100528.72;5014511;28;20033;-80
2022/04/16 09:31:49;;;;;;;4.57;2.00;;;;;;;10.78;50.34;100534.38;5013988;28;20041;-80
2022/04/16 09:34:20;;;;;;;2.08;1.70;;;;;;;11.06;50.87;100541.09;5035753;28;20400;-80
2022/04/16 09:36:46;;;;;;;4.45;2.35;;;;;;;10.82;50.83;100532.94;5024308;28;20488;-80
2022/04/16 09:39:12;;;;;;;9.75;2.05;;;;;;;11.02;50.29;100533.72;5041822;28;20053;-80
2022/04/16 09:41:44;;;;;;;2.75;1.90;;;;;;;10.70;50.09;100531.94;5023469;28;20510;-79
2022/04/16 09:44:35;;;;;;;2.22;1.73;;;;;;;10.68;51.05;100534.78;5018269;28;20026;-80
2022/04/16 09:47:03;;;;;;;4.65;1.80;;;;;;;10.86;50.59;100539.50;5021417;28;20080;-80
2022/04/16 09:49:32;;;;;;;4.68;1.40;;;;;;;10.86;50.29;100536.81;5023198;28;20025;-80
2022/04/16 09:52:01;;;;;;;3.25;1.48;;;;;;;11.11;49.93;100535.94;5025171;28;20401;-80
2022/04/16 09:54:27;;;;;;;3.65;1.55;;;;;;;11.07;50.94;100531.25;5017896;28;20504;-80
2022/04/16 09:57:00;;;;;;;3.17;0.82;;;;;;;11.51;48.96;100528.56;5033306;28;20278;-80
2022/04/16 09:59:26;;;;;;;4.82;1.33;;;;;;;11.72;48.19;100535.50;5021230;28;20535;-79
2022/04/16 10:01:52;;;;;;;8.25;1.20;;;;;;;11.92;46.76;100539.72;5032300;28;20037;-79
2022/04/16 10:04:19;;;;;;;1.08;0.98;;;;;;;12.01;46.33;100551.78;5021679;28;20031;-79
2022/04/16 10:06:45;;;;;;;2.42;1.05;;;;;;;12.18;46.76;100543.22;5025054;28;20043;-79
2022/04/16 10:09:17;;;;;;;9.70;2.05;;;;;;;12.25;46.09;100544.84;5011160;28;20053;-79
2022/04/16 10:14:54;;;;;;;3.38;1.42;;;;;;;12.43;45.83;100546.72;5023467;28;20049;-79
2022/04/16 10:17:28;;;;;;;7.30;1.30;;;;;;;12.48;46.24;100534.34;5025303;28;20029;-79
2022/04/16 10:20:04;;;;;;;6.30;1.60;;;;;;;12.51;43.66;100531.22;5027031;28;20053;-80
2022/04/16 10:22:29;;;;;;;8.30;1.40;;;;;;;12.89;44.56;100536.41;5043373;28;20040;-80
2022/04/16 10:24:57;;;;;;;1.10;1.00;;;;;;;12.81;45.88;100528.66;5031539;28;20025;-80
2022/04/16 10:27:27;;;;;;;2.08;1.00;;;;;;;12.92;45.17;100522.56;5028179;28;20053;-79
2022/04/16 10:29:54;;;;;;;2.60;1.38;;;;;;;13.10;44.99;100524.47;5009058;28;20030;-79
2022/04/16 10:32:19;;;;;;;2.33;1.13;;;;;;;13.00;44.03;100519.59;5027408;28;20041;-80
2022/04/16 10:34:46;;;;;;;7.30;1.40;;;;;;;12.96;44.71;100522.94;5026529;28;20033;-80
2022/04/16 10:37:24;;;;;;;2.17;1.10;;;;;;;13.09;44.22;100515.59;5011064;28;20026;-79
2022/04/16 10:39:53;;;;;;;3.88;1.15;;;;;;;13.09;44.38;100518.28;5023221;28;20037;-79
2022/04/16 10:42:30;;;;;;;5.03;1.30;;;;;;;13.19;44.73;100515.09;5018883;28;20026;-79
2022/04/16 10:45:06;;;;;;;4.75;1.40;;;;;;;13.26;43.68;100513.13;5023066;28;20033;-79
2022/04/16 10:47:35;;;;;;;2.88;1.40;;;;;;;13.40;44.67;100517.28;5025246;28;20029;-80
2022/04/16 10:50:17;;;;;;;1.23;1.05;;;;;;;13.12;43.46;100515.16;5026085;28;20033;-80
2022/04/16 10:53:03;;;;;;;1.08;1.02;;;;;;;13.27;43.03;100512.91;5021942;28;20029;-81
2022/04/16 10:55:36;;;;;;;1.80;1.23;;;;;;;13.43;43.04;100516.84;5024357;28;20041;-81
2022/04/16 10:58:03;;;;;;;2.58;1.20;;;;;;;13.43;42.90;100509.59;5027858;28;20112;-81
2022/04/16 11:00:46;;;;;;;5.50;1.10;;;;;;;13.43;42.90;100506.13;5030728;28;20041;-84
2022/04/16 11:03:14;;;;;;;2.67;0.63;;;;;;;13.44;43.10;100503.22;5026861;28;20655;-84
2022/04/16 11:05:43;;;;;;;2.67;1.33;;;;;;;13.52;42.26;100502.88;5013379;28;20037;-84
2022/04/16 11:08:11;;;;;;;3.03;1.30;;;;;;;13.54;41.57;100521.47;5024807;28;20033;-84
2022/04/16 11:10:38;;;;;;;1.25;1.15;;;;;;;13.54;41.85;100500.78;5010588;28;20404;-84
2022/04/16 11:13:05;;;;;;;1.70;1.00;;;;;;;13.53;40.77;100509.91;5013222;28;20040;-84
2022/04/16 11:15:30;;;;;;;1.23;1.13;;;;;;;13.82;40.91;100508.25;5015730;28;20040;-84
2022/04/16 11:18:01;;;;;;;2.20;0.90;;;;;;;13.86;40.70;100508.59;5027912;28;20490;-83
2022/04/16 11:20:28;;;;;;;0.93;0.90;;;;;;;13.70;38.50;100501.19;5025215;28;20037;-84
2022/04/16 11:22:57;;;;;;;1.15;0.85;;;;;;;13.76;39.08;100509.16;5013822;28;20417;-84
2022/04/16 11:25:24;;;;;;;3.95;1.48;;;;;;;13.78;38.75;100499.00;5005878;28;20166;-84
2022/04/16 11:36:08;;;;;;;2.08;0.73;;;;;;;14.07;37.74;100518.81;5022543;28;20134;-85
2022/04/16 11:38:35;;;;;;;1.38;0.70;;;;;;;14.18;37.48;100515.34;5026539;28;20489;-84
2022/04/16 11:41:04;;;;;;;0.80;0.80;;;;;;;14.09;38.78;100525.59;5027649;28;20496;-86
2022/04/16 11:43:30;;;;;;;1.95;1.13;;;;;;;14.05;38.02;100515.53;5008872;28;20430;-83
2022/04/16 11:45:57;;;;;;;1.92;1.20;;;;;;;14.12;40.21;100522.47;5013693;28;20037;-82